Time;durP1;ratioP1;P1;durP2;ratioP2;P2;SDS_P1;SDS_P2;PMS_P1;PMS_P2;Temp;Humidity;BMP_temperature;BMP_pressure;BME280_temperature;BME280_humidity;BME280_pressure;Samples;Min_cycle;Max_cycle;Signal;HPM_P1;HPM_P2
2023/11/15 00:01:09;;;;;;;1.40;0.80;;;7.20;100.00;;;;;;4956986;28;20138;-79
2023/11/15 00:03:36;;;;;;;6.88;1.52;;;7.20;100.00;;;;;;4964930;28;20756;-79
2023/11/15 00:06:03;;;;;;;5.63;1.00;;;7.20;100.00;;;;;;4958896;28;20047;-79
2023/11/15 00:08:30;;;;;;;6.63;1.23;;;7.20;100.00;;;;;;4958266;28;20058;-79
2023/11/15 00:10:57;;;;;;;6.03;2.00;;;7.20;100.00;;;;;;4965315;28;20046;-79
2023/11/15 00:13:24;;;;;;;4.65;1.40;;;7.20;100.00;;;;;;4964668;28;20768;-79
2023/11/15 00:15:51;;;;;;;4.93;1.15;;;7.30;100.00;;;;;;4964525;28;20059;-79
2023/11/15 00:18:18;;;;;;;3.15;1.23;;;7.30;100.00;;;;;;4962676;28;20105;-79
2023/11/15 00:20:45;;;;;;;3.60;1.25;;;7.30;100.00;;;;;;4963484;28;20074;-79
2023/11/15 00:23:12;;;;;;;4.95;1.35;;;7.30;100.00;;;;;;4957167;28;20056;-79
2023/11/15 00:25:40;;;;;;;10.25;1.80;;;7.30;100.00;;;;;;4959752;28;20047;-79
2023/11/15 00:28:08;;;;;;;3.05;1.33;;;7.30;100.00;;;;;;4961042;28;20047;-79
2023/11/15 00:30:35;;;;;;;3.30;1.75;;;7.30;100.00;;;;;;4961930;28;20047;-79
2023/11/15 00:33:02;;;;;;;4.03;1.40;;;7.30;100.00;;;;;;4958591;28;20047;-79
2023/11/15 00:35:29;;;;;;;2.30;1.17;;;7.30;100.00;;;;;;4960300;28;20050;-78
2023/11/15 00:37:57;;;;;;;4.22;1.35;;;7.30;100.00;;;;;;4964329;28;20139;-79
2023/11/15 00:40:24;;;;;;;3.67;1.60;;;7.30;100.00;;;;;;4962982;28;20051;-73
2023/11/15 00:42:51;;;;;;;8.55;1.98;;;7.30;100.00;;;;;;4959311;28;20058;-73
2023/11/15 00:45:18;;;;;;;6.65;1.90;;;7.30;100.00;;;;;;4955741;28;20718;-73
2023/11/15 00:47:45;;;;;;;6.60;2.03;;;7.30;100.00;;;;;;4955645;28;20141;-73
2023/11/15 00:50:12;;;;;;;6.57;1.77;;;7.30;100.00;;;;;;4961702;28;20626;-73
2023/11/15 00:52:39;;;;;;;8.95;2.40;;;7.30;100.00;;;;;;4967251;28;20050;-73
2023/11/15 00:55:07;;;;;;;3.47;2.00;;;7.30;100.00;;;;;;4955459;28;20046;-73
2023/11/15 00:57:35;;;;;;;4.50;2.20;;;7.30;100.00;;;;;;4958213;28;20061;-73
2023/11/15 01:00:07;;;;;;;4.28;1.88;;;7.30;100.00;;;;;;4960220;28;20059;-73
2023/11/15 01:02:42;;;;;;;7.47;2.55;;;7.20;100.00;;;;;;4954210;28;20050;-73
2023/11/15 01:05:09;;;;;;;6.75;1.83;;;7.20;100.00;;;;;;4955752;28;20054;-73
2023/11/15 01:07:36;;;;;;;4.80;2.25;;;7.30;100.00;;;;;;4967038;28;20671;-72
2023/11/15 01:10:06;;;;;;;7.00;2.15;;;7.20;100.00;;;;;;4962333;28;20098;-72
2023/11/15 01:12:33;;;;;;;5.18;2.30;;;7.20;100.00;;;;;;4963376;28;20086;-73
2023/11/15 01:14:59;;;;;;;7.25;2.25;;;7.20;100.00;;;;;;4958194;28;20097;-73
2023/11/15 01:17:28;;;;;;;5.70;2.38;;;7.20;100.00;;;;;;4960100;28;20075;-73
2023/11/15 01:19:55;;;;;;;3.67;1.77;;;7.20;100.00;;;;;;4959897;28;20109;-73
2023/11/15 01:22:22;;;;;;;5.10;2.55;;;7.20;100.00;;;;;;4963375;28;20398;-73
2023/11/15 01:24:49;;;;;;;4.90;1.98;;;7.20;100.00;;;;;;4958018;28;20082;-73
2023/11/15 01:27:17;;;;;;;6.13;2.65;;;7.20;100.00;;;;;;4961875;28;20047;-73
2023/11/15 01:29:44;;;;;;;4.68;2.15;;;7.20;100.00;;;;;;4960307;28;20054;-72
2023/11/15 01:32:11;;;;;;;6.32;2.58;;;7.20;100.00;;;;;;4960828;28;20046;-73
2023/11/15 01:34:38;;;;;;;5.97;3.25;;;7.20;100.00;;;;;;4956747;28;20138;-73
2023/11/15 01:37:05;;;;;;;5.97;2.40;;;7.20;100.00;;;;;;4951378;28;20133;-73
2023/11/15 01:39:32;;;;;;;7.60;2.60;;;7.20;100.00;;;;;;4963924;28;20106;-72
2023/11/15 01:41:58;;;;;;;4.97;2.45;;;7.20;100.00;;;;;;4955919;28;20437;-72
2023/11/15 01:44:25;;;;;;;5.75;2.45;;;7.20;100.00;;;;;;4959346;28;20525;-73
2023/11/15 01:46:53;;;;;;;7.43;2.95;;;7.20;100.00;;;;;;4957148;28;20507;-73
2023/11/15 01:49:21;;;;;;;5.75;2.72;;;7.20;100.00;;;;;;4957112;28;20055;-73
2023/11/15 01:51:50;;;;;;;5.43;3.17;;;7.20;100.00;;;;;;4959057;28;20074;-73
2023/11/15 01:54:20;;;;;;;7.80;3.38;;;7.20;100.00;;;;;;4966455;28;20050;-73
2023/11/15 01:56:47;;;;;;;7.05;3.15;;;7.20;100.00;;;;;;4956615;28;20052;-73
2023/11/15 01:59:14;;;;;;;11.10;2.90;;;7.20;100.00;;;;;;4962799;28;20043;-72
2023/11/15 02:01:41;;;;;;;5.65;3.03;;;7.20;100.00;;;;;;4959434;28;20113;-73
2023/11/15 02:04:08;;;;;;;8.07;3.05;;;7.20;100.00;;;;;;4956168;28;20051;-73
2023/11/15 02:06:37;;;;;;;5.22;2.95;;;7.20;100.00;;;;;;4955335;28;20130;-73
2023/11/15 02:09:05;;;;;;;6.60;3.00;;;7.20;100.00;;;;;;4956539;28;20167;-73
2023/11/15 02:11:32;;;;;;;7.13;2.83;;;7.20;100.00;;;;;;4958526;28;20051;-73
2023/11/15 02:13:59;;;;;;;8.10;3.40;;;7.20;100.00;;;;;;4961597;28;20058;-73
2023/11/15 02:16:27;;;;;;;6.78;3.55;;;7.20;100.00;;;;;;4962650;28;20062;-73
2023/11/15 02:18:54;;;;;;;7.85;3.28;;;7.20;100.00;;;;;;4957753;28;20051;-73
2023/11/15 02:21:21;;;;;;;7.28;3.30;;;7.20;100.00;;;;;;4953101;28;20058;-73
2023/11/15 02:23:48;;;;;;;5.88;3.00;;;7.20;100.00;;;;;;4960959;28;20058;-73
2023/11/15 02:26:15;;;;;;;7.90;3.72;;;7.20;100.00;;;;;;4954398;28;20035;-73
2023/11/15 02:28:42;;;;;;;7.05;3.28;;;7.20;100.00;;;;;;4952798;28;20145;-73
2023/11/15 02:31:10;;;;;;;5.90;3.20;;;7.30;100.00;;;;;;4951999;28;20055;-73
2023/11/15 02:33:38;;;;;;;8.27;3.85;;;7.30;100.00;;;;;;4954939;28;20137;-73
2023/11/15 02:36:05;;;;;;;8.02;3.72;;;7.30;100.00;;;;;;4961489;28;20051;-73
2023/11/15 02:38:33;;;;;;;9.15;3.83;;;7.20;100.00;;;;;;4962064;28;20079;-73
2023/11/15 02:41:00;;;;;;;7.63;4.00;;;7.30;100.00;;;;;;4955853;28;20082;-73
2023/11/15 02:43:27;;;;;;;8.52;3.83;;;7.20;100.00;;;;;;4954114;28;20051;-73
2023/11/15 02:45:54;;;;;;;7.97;3.63;;;7.30;100.00;;;;;;4959381;28;20078;-73
2023/11/15 02:48:21;;;;;;;8.77;4.05;;;7.30;100.00;;;;;;4961748;28;20090;-73
2023/11/15 02:50:48;;;;;;;8.90;3.83;;;7.30;100.00;;;;;;4956970;28;20055;-73
2023/11/15 02:53:15;;;;;;;7.63;3.25;;;7.30;100.00;;;;;;4960144;28;20055;-73
2023/11/15 02:55:42;;;;;;;12.30;4.13;;;7.30;100.00;;;;;;4955245;28;20133;-73
2023/11/15 02:58:09;;;;;;;10.55;4.70;;;7.30;100.00;;;;;;4952848;28;20054;-73
2023/11/15 03:00:37;;;;;;;10.30;3.88;;;7.30;100.00;;;;;;4956582;28;20086;-73
2023/11/15 03:03:04;;;;;;;9.88;4.57;;;7.30;100.00;;;;;;4952670;28;20500;-73
2023/11/15 03:05:31;;;;;;;12.75;4.53;;;7.30;100.00;;;;;;4954059;28;20206;-73
2023/11/15 03:07:58;;;;;;;11.90;3.83;;;7.40;100.00;;;;;;4957634;28;20047;-72
2023/11/15 03:10:25;;;;;;;9.35;3.72;;;7.40;100.00;;;;;;4952859;28;20074;-73
2023/11/15 03:12:52;;;;;;;9.18;4.50;;;7.40;100.00;;;;;;4961096;28;20059;-73
2023/11/15 03:15:19;;;;;;;11.10;4.38;;;7.40;100.00;;;;;;4955245;28;20497;-73
2023/11/15 03:17:46;;;;;;;8.63;4.35;;;7.40;100.00;;;;;;4952481;28;20121;-73
2023/11/15 03:20:13;;;;;;;9.38;4.70;;;7.40;100.00;;;;;;4958936;28;20141;-73
2023/11/15 03:22:40;;;;;;;8.55;4.45;;;7.40;100.00;;;;;;4955380;28;20296;-73
2023/11/15 03:25:07;;;;;;;11.23;4.18;;;7.40;100.00;;;;;;4960293;28;20132;-73
2023/11/15 03:27:34;;;;;;;8.82;4.00;;;7.40;100.00;;;;;;4958773;28;20051;-72
2023/11/15 03:30:01;;;;;;;8.15;4.25;;;7.40;100.00;;;;;;4966901;28;20191;-72
2023/11/15 03:32:28;;;;;;;8.57;4.00;;;7.50;100.00;;;;;;4961232;28;20087;-73
2023/11/15 03:34:55;;;;;;;8.23;4.10;;;7.50;100.00;;;;;;4960653;28;20775;-73
2023/11/15 03:37:23;;;;;;;9.93;5.32;;;7.50;100.00;;;;;;4957528;28;20051;-73
2023/11/15 03:39:50;;;;;;;11.63;4.78;;;7.50;100.00;;;;;;4952240;28;20090;-73
2023/11/15 03:42:16;;;;;;;11.65;4.68;;;7.50;100.00;;;;;;4952128;28;20062;-73
2023/11/15 03:44:43;;;;;;;8.40;4.30;;;7.50;100.00;;;;;;4948283;28;20051;-73
2023/11/15 03:47:11;;;;;;;13.27;5.13;;;7.50;100.00;;;;;;4952353;28;20051;-73
2023/11/15 03:49:37;;;;;;;10.10;5.30;;;7.60;100.00;;;;;;4952145;28;20051;-73
2023/11/15 03:52:07;;;;;;;11.40;5.18;;;7.60;100.00;;;;;;4958278;28;20051;-73
2023/11/15 03:54:33;;;;;;;10.88;5.28;;;7.60;100.00;;;;;;4951874;28;20121;-73
2023/11/15 03:57:02;;;;;;;11.65;4.30;;;7.60;100.00;;;;;;4948863;28;20051;-73
2023/11/15 03:59:29;;;;;;;10.88;4.53;;;7.70;100.00;;;;;;4960608;28;20447;-73
2023/11/15 04:01:56;;;;;;;7.47;3.75;;;7.70;100.00;;;;;;4960804;28;20047;-73
2023/11/15 04:04:24;;;;;;;6.50;3.33;;;7.70;100.00;;;;;;4958076;28;20051;-73
2023/11/15 04:06:52;;;;;;;11.35;3.40;;;7.70;100.00;;;;;;4954284;28;20696;-73
2023/11/15 04:09:19;;;;;;;8.88;3.60;;;7.70;100.00;;;;;;4955387;28;20047;-73
2023/11/15 04:11:46;;;;;;;10.52;3.08;;;7.70;100.00;;;;;;4949107;28;20117;-73
2023/11/15 04:14:13;;;;;;;5.70;2.50;;;7.70;100.00;;;;;;4952690;28;20066;-73
2023/11/15 04:16:40;;;;;;;5.13;1.92;;;7.70;100.00;;;;;;4953567;28;20047;-73
2023/11/15 04:19:09;;;;;;;5.47;2.30;;;7.70;100.00;;;;;;4951114;28;20082;-73
2023/11/15 04:21:36;;;;;;;3.00;1.88;;;7.70;100.00;;;;;;4946826;28;20114;-73
2023/11/15 04:24:03;;;;;;;3.45;1.67;;;7.60;100.00;;;;;;4952346;28;20089;-73
2023/11/15 04:26:30;;;;;;;3.22;1.50;;;7.70;100.00;;;;;;4955314;28;20601;-73
2023/11/15 04:28:57;;;;;;;2.80;1.50;;;7.70;100.00;;;;;;4950167;28;20050;-73
2023/11/15 04:31:24;;;;;;;2.40;1.40;;;7.70;100.00;;;;;;4950704;28;20403;-73
2023/11/15 04:33:51;;;;;;;3.55;1.65;;;7.70;100.00;;;;;;4954767;28;20082;-73
2023/11/15 04:36:19;;;;;;;4.13;2.10;;;7.70;100.00;;;;;;4962030;28;20051;-73
2023/11/15 04:38:49;;;;;;;3.17;1.65;;;7.70;100.00;;;;;;4952001;28;20059;-73
2023/11/15 04:41:16;;;;;;;3.45;1.63;;;7.70;100.00;;;;;;4958769;28;20089;-73
2023/11/15 04:43:43;;;;;;;3.22;1.40;;;7.70;100.00;;;;;;4955147;28;20061;-73
2023/11/15 04:46:10;;;;;;;3.45;1.58;;;7.70;100.00;;;;;;4951163;28;20050;-73
2023/11/15 04:48:38;;;;;;;4.47;1.52;;;7.70;100.00;;;;;;4950771;28;20051;-73
2023/11/15 04:51:06;;;;;;;3.20;1.08;;;7.70;100.00;;;;;;4956734;28;20051;-73
2023/11/15 04:53:33;;;;;;;2.67;1.40;;;7.70;100.00;;;;;;4951580;28;20063;-72
2023/11/15 04:56:02;;;;;;;3.10;1.10;;;7.70;100.00;;;;;;4950939;28;20691;-73
2023/11/15 04:58:29;;;;;;;6.50;1.50;;;7.70;100.00;;;;;;4952136;28;20047;-73
2023/11/15 05:00:56;;;;;;;1.50;1.00;;;7.70;100.00;;;;;;4956616;28;20501;-73
2023/11/15 05:03:23;;;;;;;11.25;1.65;;;7.70;100.00;;;;;;4955895;28;20492;-73
2023/11/15 05:05:50;;;;;;;3.03;1.67;;;7.70;100.00;;;;;;4954145;28;20892;-73
2023/11/15 05:08:17;;;;;;;4.10;1.42;;;7.70;100.00;;;;;;4951908;28;20078;-73
2023/11/15 05:10:44;;;;;;;2.55;1.17;;;7.80;100.00;;;;;;4952113;28;20499;-73
2023/11/15 05:13:11;;;;;;;3.65;1.58;;;7.70;100.00;;;;;;4954423;28;20142;-73
2023/11/15 05:15:38;;;;;;;2.35;1.40;;;7.70;100.00;;;;;;4952853;28;20043;-73
2023/11/15 05:18:05;;;;;;;1.75;1.20;;;7.70;100.00;;;;;;4952168;28;20184;-73
2023/11/15 05:20:32;;;;;;;4.60;1.40;;;7.70;100.00;;;;;;4953445;28;20501;-73
2023/11/15 05:22:59;;;;;;;2.75;1.38;;;7.70;100.00;;;;;;4956915;28;20062;-73
2023/11/15 05:25:28;;;;;;;6.47;1.60;;;7.70;100.00;;;;;;4954597;28;20051;-73
2023/11/15 05:27:55;;;;;;;2.08;1.33;;;7.70;100.00;;;;;;4947349;28;20055;-73
2023/11/15 05:30:22;;;;;;;6.20;1.55;;;7.70;100.00;;;;;;4949547;28;20044;-73
2023/11/15 05:32:49;;;;;;;4.75;1.52;;;7.70;100.00;;;;;;4961634;28;20129;-73
2023/11/15 05:35:16;;;;;;;2.42;1.70;;;7.70;100.00;;;;;;4956482;28;20055;-73
2023/11/15 05:37:43;;;;;;;4.78;1.88;;;7.70;100.00;;;;;;4956034;28;20058;-73
2023/11/15 05:40:12;;;;;;;5.97;1.95;;;7.70;100.00;;;;;;4962635;28;20161;-73
2023/11/15 05:42:40;;;;;;;4.13;1.88;;;7.70;100.00;;;;;;4953215;28;20129;-73
2023/11/15 05:45:10;;;;;;;2.85;1.63;;;7.70;100.00;;;;;;4957621;28;20050;-73
2023/11/15 05:47:38;;;;;;;3.58;1.83;;;7.60;100.00;;;;;;4958590;28;20503;-73
2023/11/15 05:50:09;;;;;;;6.95;1.55;;;7.60;100.00;;;;;;4960167;28;20049;-73
2023/11/15 05:52:39;;;;;;;6.15;2.42;;;7.50;100.00;;;;;;4957029;28;20055;-74
2023/11/15 05:55:08;;;;;;;6.05;2.70;;;7.50;100.00;;;;;;4960403;28;20130;-73
2023/11/15 05:57:35;;;;;;;4.20;2.08;;;7.50;100.00;;;;;;4956183;28;20133;-73
2023/11/15 06:00:07;;;;;;;4.40;2.20;;;7.40;100.00;;;;;;4956653;28;20645;-73
2023/11/15 06:02:34;;;;;;;6.50;2.45;;;7.40;100.00;;;;;;4965169;28;20055;-73
2023/11/15 06:05:01;;;;;;;6.55;2.60;;;7.30;100.00;;;;;;4959014;28;20078;-74
2023/11/15 06:07:28;;;;;;;5.82;2.95;;;7.20;100.00;;;;;;4955047;28;20736;-75
2023/11/15 06:09:55;;;;;;;5.60;2.90;;;7.20;100.00;;;;;;4955364;28;20046;-74
2023/11/15 06:12:22;;;;;;;11.48;6.15;;;7.20;100.00;;;;;;4954614;28;20051;-76
2023/11/15 06:14:49;;;;;;;13.55;9.35;;;7.20;100.00;;;;;;4961890;28;20156;-73
2023/11/15 06:17:17;;;;;;;9.80;5.75;;;7.20;100.00;;;;;;4965518;28;20069;-73
2023/11/15 06:19:44;;;;;;;10.18;4.40;;;7.20;100.00;;;;;;4960980;28;21057;-73
2023/11/15 06:22:23;;;;;;;7.50;3.45;;;7.20;100.00;;;;;;4962242;28;20134;-73
2023/11/15 06:24:50;;;;;;;6.88;3.75;;;7.20;100.00;;;;;;4962561;28;20137;-74
2023/11/15 06:27:18;;;;;;;9.55;4.22;;;7.20;100.00;;;;;;4958596;28;20342;-74
2023/11/15 06:29:50;;;;;;;7.85;3.83;;;7.20;100.00;;;;;;4960027;28;20178;-72
2023/11/15 06:32:17;;;;;;;13.20;5.22;;;7.20;100.00;;;;;;4953152;28;20098;-71
2023/11/15 06:34:47;;;;;;;9.07;4.75;;;7.30;100.00;;;;;;4959875;28;20660;-71
2023/11/15 06:37:17;;;;;;;11.50;5.32;;;7.20;100.00;;;;;;4951521;28;20145;-71
2023/11/15 06:39:45;;;;;;;16.02;7.57;;;7.30;100.00;;;;;;4952866;28;20416;-71
2023/11/15 06:42:11;;;;;;;11.68;5.28;;;7.30;100.00;;;;;;4951851;28;20163;-72
2023/11/15 06:44:39;;;;;;;7.57;3.97;;;7.30;100.00;;;;;;4959179;28;20050;-72
2023/11/15 06:47:08;;;;;;;13.85;4.10;;;7.30;100.00;;;;;;4959875;28;20058;-72
2023/11/15 06:49:36;;;;;;;68.53;35.00;;;7.30;100.00;;;;;;4954597;28;20654;-72
2023/11/15 06:52:05;;;;;;;25.35;12.30;;;7.30;100.00;;;;;;4951835;28;20129;-72
2023/11/15 06:54:32;;;;;;;23.52;15.18;;;7.30;100.00;;;;;;4954100;28;20126;-72
2023/11/15 06:56:59;;;;;;;12.25;6.35;;;7.30;100.00;;;;;;4950751;28;20047;-73
2023/11/15 06:59:26;;;;;;;15.00;7.63;;;7.30;100.00;;;;;;4955691;28;20051;-72
2023/11/15 07:01:59;;;;;;;10.38;5.55;;;7.30;100.00;;;;;;4960842;28;20097;-73
2023/11/15 07:04:35;;;;;;;21.83;10.18;;;7.30;100.00;;;;;;4949788;28;20524;-72
2023/11/15 07:07:03;;;;;;;20.88;13.32;;;7.40;100.00;;;;;;4947915;28;20061;-72
2023/11/15 07:09:30;;;;;;;18.98;8.43;;;7.40;100.00;;;;;;4948084;28;21913;-73
2023/11/15 07:11:57;;;;;;;11.95;5.68;;;7.40;100.00;;;;;;4952321;28;20047;-73
2023/11/15 07:14:28;;;;;;;11.25;5.20;;;7.40;100.00;;;;;;4947708;28;20047;-73
2023/11/15 07:16:55;;;;;;;13.05;4.65;;;7.40;100.00;;;;;;4955448;28;20078;-72
2023/11/15 07:19:27;;;;;;;9.75;4.40;;;7.40;100.00;;;;;;4952163;28;20056;-72
2023/11/15 07:21:54;;;;;;;12.55;6.03;;;7.40;100.00;;;;;;4965302;28;20050;-72
2023/11/15 07:24:21;;;;;;;11.43;5.43;;;7.50;100.00;;;;;;4958971;28;20633;-73
2023/11/15 07:26:48;;;;;;;7.88;4.85;;;7.50;100.00;;;;;;4956662;28;20055;-72
2023/11/15 07:29:20;;;;;;;9.95;4.13;;;7.50;100.00;;;;;;4952580;28;20490;-72
2023/11/15 07:31:53;;;;;;;8.70;4.38;;;7.50;100.00;;;;;;4954324;28;20093;-72
2023/11/15 07:34:22;;;;;;;12.32;4.05;;;7.50;100.00;;;;;;4950502;28;20051;-72
2023/11/15 07:36:50;;;;;;;9.00;4.03;;;7.50;100.00;;;;;;4958788;28;20058;-72
2023/11/15 07:39:18;;;;;;;12.95;4.78;;;7.50;100.00;;;;;;4955403;28;20491;-73
2023/11/15 07:41:46;;;;;;;8.43;3.45;;;7.60;100.00;;;;;;4960388;28;20054;-73
2023/11/15 07:44:15;;;;;;;9.75;3.50;;;7.60;100.00;;;;;;4952116;28;20051;-72
2023/11/15 07:46:46;;;;;;;7.90;3.47;;;7.60;100.00;;;;;;4951060;28;20055;-72
2023/11/15 07:49:18;;;;;;;18.55;4.32;;;7.60;100.00;;;;;;4952996;28;20131;-73
2023/11/15 07:51:46;;;;;;;5.70;3.80;;;7.60;100.00;;;;;;4950911;28;20054;-72
2023/11/15 07:54:14;;;;;;;13.68;4.78;;;7.60;100.00;;;;;;4956978;28;20082;-72
2023/11/15 07:56:41;;;;;;;7.95;3.50;;;7.60;100.00;;;;;;4960856;28;20054;-73
2023/11/15 07:59:10;;;;;;;5.88;3.40;;;7.50;100.00;;;;;;4956961;28;20077;-73
2023/11/15 08:01:40;;;;;;;7.82;3.20;;;7.60;100.00;;;;;;4949869;28;20055;-73
2023/11/15 08:04:11;;;;;;;11.70;3.40;;;7.60;100.00;;;;;;4953692;28;20066;-72
2023/11/15 08:06:39;;;;;;;6.22;2.95;;;7.60;100.00;;;;;;4955000;28;20051;-73
2023/11/15 08:09:07;;;;;;;8.60;2.70;;;7.60;100.00;;;;;;4959016;28;20062;-73
2023/11/15 08:11:37;;;;;;;11.18;2.95;;;7.60;100.00;;;;;;4957907;28;20083;-72
2023/11/15 08:14:06;;;;;;;8.40;3.38;;;7.50;100.00;;;;;;4957035;28;20058;-72
2023/11/15 08:16:33;;;;;;;8.38;3.40;;;7.60;100.00;;;;;;4951217;28;20132;-73
2023/11/15 08:19:03;;;;;;;10.32;3.00;;;7.60;100.00;;;;;;4952904;28;20050;-73
2023/11/15 08:21:30;;;;;;;9.73;3.90;;;7.60;100.00;;;;;;4955994;28;20734;-72
2023/11/15 08:23:58;;;;;;;10.00;3.88;;;7.70;100.00;;;;;;4949176;28;20055;-72
2023/11/15 08:26:26;;;;;;;11.10;3.97;;;7.70;100.00;;;;;;4962283;28;20650;-73
2023/11/15 08:28:53;;;;;;;8.77;3.45;;;7.80;100.00;;;;;;4950684;28;20046;-73
2023/11/15 08:31:23;;;;;;;9.63;4.10;;;7.80;100.00;;;;;;4950402;28;20055;-72
2023/11/15 08:33:50;;;;;;;11.85;3.40;;;7.80;100.00;;;;;;4948905;28;20130;-72
2023/11/15 08:36:17;;;;;;;7.78;2.78;;;7.90;100.00;;;;;;4951502;28;20066;-72
2023/11/15 08:38:44;;;;;;;11.85;3.28;;;8.00;100.00;;;;;;4952883;28;20638;-73
2023/11/15 08:41:18;;;;;;;7.85;2.80;;;8.00;100.00;;;;;;4946329;28;20051;-73
2023/11/15 08:43:45;;;;;;;4.43;2.45;;;8.00;100.00;;;;;;4950839;28;20051;-72
2023/11/15 08:46:16;;;;;;;9.00;3.00;;;8.00;100.00;;;;;;4951939;28;20046;-72
2023/11/15 08:48:44;;;;;;;5.68;2.55;;;8.10;100.00;;;;;;4949176;28;20047;-73
2023/11/15 08:51:12;;;;;;;8.27;2.60;;;8.20;100.00;;;;;;4955404;28;20049;-72
2023/11/15 08:53:39;;;;;;;9.82;4.15;;;8.20;100.00;;;;;;4958504;28;20057;-73
2023/11/15 08:56:13;;;;;;;9.27;3.60;;;8.30;100.00;;;;;;4964639;28;20059;-73
2023/11/15 08:58:40;;;;;;;10.48;4.50;;;8.30;100.00;;;;;;4944601;28;20157;-73
2023/11/15 09:01:09;;;;;;;12.77;4.85;;;8.40;100.00;;;;;;4952100;28;20594;-73
2023/11/15 09:03:39;;;;;;;17.92;6.70;;;8.40;100.00;;;;;;4960736;28;20054;-73
2023/11/15 09:06:06;;;;;;;19.55;7.13;;;8.40;100.00;;;;;;4956755;28;20736;-72
2023/11/15 09:08:33;;;;;;;12.60;3.47;;;8.30;100.00;;;;;;4956543;28;20556;-73
2023/11/15 09:11:00;;;;;;;6.93;3.63;;;8.20;100.00;;;;;;4960441;28;20048;-73
2023/11/15 09:13:29;;;;;;;16.85;4.63;;;8.10;100.00;;;;;;4951930;28;20110;-73
2023/11/15 09:15:58;;;;;;;18.73;4.90;;;8.20;100.00;;;;;;4960454;28;20536;-73
2023/11/15 09:18:27;;;;;;;15.35;6.35;;;8.20;100.00;;;;;;4961669;28;20047;-72
2023/11/15 09:20:54;;;;;;;18.73;8.15;;;8.20;100.00;;;;;;4956897;28;20042;-73
2023/11/15 09:23:22;;;;;;;18.52;8.35;;;8.10;100.00;;;;;;4961714;28;20058;-73
2023/11/15 09:25:59;;;;;;;23.08;9.25;;;8.10;100.00;;;;;;4949428;28;20051;-73
2023/11/15 09:28:27;;;;;;;37.83;14.90;;;8.20;100.00;;;;;;4960201;28;20090;-73
2023/11/15 09:30:54;;;;;;;56.90;23.08;;;8.20;100.00;;;;;;4963454;28;20151;-73
2023/11/15 09:33:21;;;;;;;130.30;55.78;;;8.30;100.00;;;;;;4952782;28;20734;-73
2023/11/15 09:35:48;;;;;;;67.82;30.45;;;8.40;100.00;;;;;;4955728;28;20043;-73
2023/11/15 09:38:26;;;;;;;26.52;12.98;;;8.50;100.00;;;;;;4959328;28;20802;-73
2023/11/15 09:40:53;;;;;;;47.72;21.48;;;8.60;100.00;;;;;;4965789;28;20053;-73
2023/11/15 09:43:20;;;;;;;44.17;18.98;;;8.70;100.00;;;;;;4963779;28;20700;-73
2023/11/15 09:45:48;;;;;;;25.88;11.68;;;8.70;100.00;;;;;;4956583;28;20409;-73
2023/11/15 09:48:15;;;;;;;15.13;5.75;;;8.80;100.00;;;;;;4961827;28;20078;-73
2023/11/15 09:50:48;;;;;;;11.77;4.97;;;8.80;100.00;;;;;;4957707;28;20082;-73
2023/11/15 09:53:21;;;;;;;63.85;25.25;;;8.90;100.00;;;;;;4951404;28;20047;-74
2023/11/15 09:55:48;;;;;;;85.70;29.48;;;8.90;100.00;;;;;;4952985;28;20051;-73
2023/11/15 09:58:16;;;;;;;53.75;17.83;;;9.00;100.00;;;;;;4955143;28;20059;-73
2023/11/15 10:00:46;;;;;;;15.75;5.32;;;9.00;100.00;;;;;;4957863;28;20053;-73
2023/11/15 10:03:19;;;;;;;8.77;4.07;;;9.00;100.00;;;;;;4950878;28;20051;-73
2023/11/15 10:05:57;;;;;;;31.23;9.77;;;9.00;100.00;;;;;;4956301;28;20062;-73
2023/11/15 10:08:26;;;;;;;12.63;4.75;;;8.90;100.00;;;;;;4958702;28;20047;-73
2023/11/15 10:11:07;;;;;;;15.75;7.60;;;8.90;100.00;;;;;;4958715;28;20047;-73
2023/11/15 10:13:36;;;;;;;13.10;5.72;;;9.00;100.00;;;;;;4956046;28;20146;-73
2023/11/15 10:16:08;;;;;;;8.55;3.75;;;9.00;100.00;;;;;;4958492;28;20070;-73
2023/11/15 10:18:35;;;;;;;17.92;7.55;;;9.00;100.00;;;;;;4961835;28;20047;-73
2023/11/15 10:21:11;;;;;;;25.05;9.40;;;9.00;100.00;;;;;;4951166;28;20163;-73
2023/11/15 10:23:38;;;;;;;36.38;16.23;;;9.10;100.00;;;;;;4961661;28;20047;-73
2023/11/15 10:26:09;;;;;;;26.95;11.15;;;9.20;100.00;;;;;;4961322;28;20060;-73
2023/11/15 10:28:39;;;;;;;15.35;7.10;;;9.20;100.00;;;;;;4964265;28;20050;-73
2023/11/15 10:31:18;;;;;;;9.05;3.58;;;9.20;100.00;;;;;;4952839;28;20110;-73
2023/11/15 10:33:58;;;;;;;27.58;10.77;;;9.20;100.00;;;;;;4960051;28;20055;-73
2023/11/15 10:36:25;;;;;;;13.20;5.45;;;9.10;100.00;;;;;;4958959;28;20055;-73
2023/11/15 10:38:59;;;;;;;6.93;2.60;;;9.10;100.00;;;;;;4952776;28;20051;-73
2023/11/15 10:41:29;;;;;;;3.40;2.17;;;9.20;100.00;;;;;;4951102;28;20051;-73
2023/11/15 10:43:56;;;;;;;8.55;2.20;;;9.20;100.00;;;;;;4957539;28;20058;-73
2023/11/15 10:46:31;;;;;;;4.18;2.15;;;9.10;100.00;;;;;;4950594;28;20062;-73
2023/11/15 10:49:00;;;;;;;9.75;2.13;;;9.20;100.00;;;;;;4952770;28;20051;-73
2023/11/15 10:51:49;;;;;;;5.60;2.22;;;9.20;100.00;;;;;;4949705;28;20043;-73
2023/11/15 10:54:17;;;;;;;3.28;2.40;;;9.20;100.00;;;;;;4957227;28;20835;-73
2023/11/15 10:56:45;;;;;;;5.75;2.00;;;9.20;100.00;;;;;;4956906;28;20055;-73
2023/11/15 10:59:13;;;;;;;5.03;2.20;;;9.10;100.00;;;;;;4963532;28;20495;-73
2023/11/15 11:01:41;;;;;;;6.18;2.25;;;9.10;100.00;;;;;;4958971;28;20055;-73
2023/11/15 11:04:10;;;;;;;6.03;2.03;;;9.10;100.00;;;;;;4961901;28;20077;-73
2023/11/15 11:07:07;;;;;;;5.88;1.90;;;9.10;100.00;;;;;;4956207;28;20057;-73
2023/11/15 11:09:52;;;;;;;6.00;1.85;;;9.10;100.00;;;;;;4954676;28;20074;-73
2023/11/15 11:12:23;;;;;;;8.13;2.23;;;9.10;100.00;;;;;;4962541;28;20057;-73
2023/11/15 11:15:30;;;;;;;3.67;1.77;;;9.10;100.00;;;;;;4952025;28;20302;-73
2023/11/15 11:18:04;;;;;;;4.22;1.90;;;9.10;100.00;;;;;;4954424;28;20054;-73
2023/11/15 11:20:35;;;;;;;4.57;2.00;;;9.20;100.00;;;;;;4958032;28;20061;-73
2023/11/15 11:23:21;;;;;;;7.88;2.58;;;9.30;100.00;;;;;;4954957;28;20055;-73
2023/11/15 11:25:51;;;;;;;8.88;2.00;;;9.30;100.00;;;;;;4956742;28;20051;-73
2023/11/15 11:28:21;;;;;;;6.50;2.42;;;9.20;100.00;;;;;;4953952;28;20055;-73
2023/11/15 11:31:17;;;;;;;8.02;3.08;;;9.10;100.00;;;;;;4950821;28;20047;-73
2023/11/15 11:34:12;;;;;;;5.18;2.75;;;9.20;100.00;;;;;;4956366;28;20054;-73
2023/11/15 11:36:58;;;;;;;6.82;2.22;;;9.20;100.00;;;;;;4948535;28;20061;-73
2023/11/15 11:39:44;;;;;;;6.00;2.22;;;9.20;100.00;;;;;;4957699;28;20051;-73
2023/11/15 11:42:27;;;;;;;3.50;1.75;;;9.20;100.00;;;;;;4950963;28;20055;-73
2023/11/15 11:44:57;;;;;;;4.45;1.77;;;9.20;100.00;;;;;;4954470;28;20122;-73
2023/11/15 11:47:24;;;;;;;4.43;2.00;;;9.20;100.00;;;;;;4961506;28;20047;-73
2023/11/15 11:49:52;;;;;;;9.13;2.05;;;9.30;100.00;;;;;;4959874;28;20768;-73
2023/11/15 11:52:19;;;;;;;3.28;1.50;;;9.30;100.00;;;;;;4952271;28;20908;-73
2023/11/15 11:54:52;;;;;;;5.38;1.60;;;9.20;100.00;;;;;;4947768;28;20055;-73
2023/11/15 11:57:26;;;;;;;6.15;1.95;;;9.30;100.00;;;;;;4948485;28;20075;-73
2023/11/15 12:00:20;;;;;;;3.47;1.40;;;9.40;100.00;;;;;;4954178;28;20161;-73
2023/11/15 12:02:51;;;;;;;5.63;1.40;;;9.50;100.00;;;;;;4951086;28;20053;-73
2023/11/15 12:05:30;;;;;;;3.97;1.42;;;9.40;100.00;;;;;;4948928;28;20051;-74
2023/11/15 12:07:57;;;;;;;2.60;1.02;;;9.60;100.00;;;;;;4952883;28;20603;-73
2023/11/15 12:10:24;;;;;;;2.80;1.17;;;9.60;100.00;;;;;;4953055;28;20066;-74
2023/11/15 12:12:59;;;;;;;4.10;1.38;;;9.70;100.00;;;;;;4949581;28;20047;-73
2023/11/15 12:15:27;;;;;;;1.90;1.50;;;9.80;100.00;;;;;;4960708;28;20125;-73
2023/11/15 12:17:56;;;;;;;3.50;1.55;;;9.80;100.00;;;;;;4952889;28;20049;-73
2023/11/15 12:20:40;;;;;;;3.22;1.20;;;9.90;100.00;;;;;;4947036;28;20059;-73
2023/11/15 12:23:09;;;;;;;4.57;1.63;;;9.80;100.00;;;;;;4957848;28;20129;-73
2023/11/15 12:26:01;;;;;;;9.13;1.85;;;9.80;100.00;;;;;;4958427;28;20078;-73
2023/11/15 12:28:32;;;;;;;5.47;1.90;;;9.80;100.00;;;;;;4949905;28;20055;-74
2023/11/15 12:31:03;;;;;;;6.38;1.70;;;9.80;100.00;;;;;;4959376;28;20043;-73
2023/11/15 12:33:33;;;;;;;4.88;1.20;;;9.70;100.00;;;;;;4955640;28;20050;-73
2023/11/15 12:36:02;;;;;;;1.77;1.05;;;9.70;100.00;;;;;;4962476;28;20050;-74
2023/11/15 12:38:29;;;;;;;4.10;1.40;;;9.60;100.00;;;;;;4956459;28;20047;-73
2023/11/15 12:41:04;;;;;;;4.28;1.40;;;9.50;100.00;;;;;;4960211;28;20055;-73
2023/11/15 12:43:33;;;;;;;6.47;1.73;;;9.60;100.00;;;;;;4957572;28;20604;-73
2023/11/15 12:46:14;;;;;;;6.88;1.83;;;9.70;100.00;;;;;;4959461;28;20508;-74
2023/11/15 12:48:45;;;;;;;5.35;1.67;;;9.90;100.00;;;;;;4962102;28;20058;-73
2023/11/15 12:51:12;;;;;;;6.32;1.25;;;9.90;100.00;;;;;;4954866;28;20051;-73
2023/11/15 12:53:41;;;;;;;1.45;1.10;;;9.90;100.00;;;;;;4956523;28;20047;-73